createdAt,value
2022-11-03T00:01:41.557Z,60.58
2022-11-03T00:04:10.700Z,60.78
2022-11-03T00:06:38.939Z,60.78
2022-11-03T00:09:08.535Z,60.67
2022-11-03T00:11:38.714Z,60.35
2022-11-03T00:14:07.035Z,60.61
2022-11-03T00:16:34.953Z,60.60
2022-11-03T00:19:02.854Z,60.36
2022-11-03T00:21:30.880Z,60.40
2022-11-03T00:23:58.809Z,60.65
2022-11-03T00:26:27.271Z,60.91
2022-11-03T00:28:57.033Z,61.00
2022-11-03T00:31:25.916Z,61.17
2022-11-03T00:33:53.982Z,61.06
2022-11-03T00:36:22.636Z,61.37
2022-11-03T00:38:50.597Z,61.04
2022-11-03T00:41:18.692Z,61.06
2022-11-03T00:43:46.514Z,61.04
2022-11-03T00:46:15.773Z,61.40
2022-11-03T00:48:43.728Z,61.10
2022-11-03T00:51:12.266Z,61.03
2022-11-03T00:53:41.131Z,61.14
2022-11-03T00:56:11.055Z,61.20
2022-11-03T00:58:38.921Z,61.26
2022-11-03T01:01:07.721Z,61.12
2022-11-03T01:03:38.183Z,61.44
2022-11-03T01:06:24.627Z,61.08
2022-11-03T01:08:52.587Z,61.47
2022-11-03T01:11:38.456Z,61.53
2022-11-03T01:14:06.499Z,61.55
2022-11-03T01:16:34.419Z,61.15
2022-11-03T01:19:03.641Z,61.50
2022-11-03T01:21:31.490Z,61.11
2022-11-03T01:24:01.132Z,61.15
2022-11-03T01:26:29.179Z,61.56
2022-11-03T01:28:57.179Z,61.37
2022-11-03T01:31:25.719Z,61.31
2022-11-03T01:33:54.690Z,61.51
2022-11-03T01:36:23.903Z,61.19
2022-11-03T01:38:51.796Z,61.46
2022-11-03T01:41:21.060Z,61.33
2022-11-03T01:43:49.031Z,61.48
2022-11-03T01:46:18.970Z,61.45
2022-11-03T01:48:50.039Z,61.32
2022-11-03T01:51:18.807Z,61.21
2022-11-03T01:53:49.681Z,61.63
2022-11-03T01:56:17.529Z,61.41
2022-11-03T01:58:45.477Z,61.20
2022-11-03T02:01:13.752Z,61.32
2022-11-03T02:03:43.241Z,61.25
2022-11-03T02:06:11.141Z,61.37
2022-11-03T02:08:41.380Z,61.73
2022-11-03T02:11:24.497Z,61.74
2022-11-03T02:13:52.453Z,61.51
2022-11-03T02:16:20.783Z,61.79
2022-11-03T02:18:48.712Z,61.65
2022-11-03T02:21:19.482Z,61.67
2022-11-03T02:23:48.619Z,61.89
2022-11-03T02:26:17.851Z,61.84
2022-11-03T02:28:45.735Z,61.79
2022-11-03T02:31:15.793Z,61.78
2022-11-03T02:33:48.760Z,62.20
2022-11-03T02:36:19.445Z,61.91
2022-11-03T02:38:49.256Z,62.13
2022-11-03T02:41:18.754Z,61.95
2022-11-03T02:43:47.604Z,62.17
2022-11-03T02:46:15.873Z,62.07
2022-11-03T02:48:43.788Z,62.10
2022-11-03T02:51:11.639Z,62.29
2022-11-03T02:53:41.570Z,62.07
2022-11-03T02:56:11.642Z,62.27
2022-11-03T02:58:42.954Z,61.88
2022-11-03T03:01:15.191Z,62.22
2022-11-03T03:03:43.898Z,62.19
2022-11-03T03:06:12.644Z,62.09
2022-11-03T03:08:42.997Z,61.85
2022-11-03T03:11:11.512Z,61.88
2022-11-03T03:13:40.800Z,61.74
2022-11-03T03:16:12.717Z,62.09
2022-11-03T03:18:49.306Z,61.85
2022-11-03T03:21:19.385Z,61.82
2022-11-03T03:23:49.905Z,61.77
2022-11-03T03:26:21.278Z,61.91
2022-11-03T03:28:51.792Z,61.81
2022-11-03T03:31:19.814Z,61.96
2022-11-03T03:33:48.300Z,62.26
2022-11-03T03:36:17.304Z,61.64
2022-11-03T03:38:46.210Z,61.71
2022-11-03T03:41:21.812Z,62.09
2022-11-03T03:43:52.063Z,61.63
2022-11-03T03:46:19.958Z,61.68
2022-11-03T03:48:47.889Z,61.59
2022-11-03T03:51:16.150Z,61.74
2022-11-03T03:53:44.002Z,62.02
2022-11-03T03:56:11.855Z,61.93
2022-11-03T03:58:39.756Z,61.74
2022-11-03T04:01:11.995Z,61.91
2022-11-03T04:03:39.991Z,61.78
2022-11-03T04:06:07.951Z,61.85
2022-11-03T04:08:35.830Z,61.73
2022-11-03T04:11:21.135Z,61.74
2022-11-03T04:14:06.526Z,61.78
2022-11-03T04:16:53.298Z,62.24
2022-11-03T04:19:38.788Z,61.98
2022-11-03T04:22:18.823Z,62.08
2022-11-03T04:24:46.825Z,62.29
2022-11-03T04:27:27.984Z,61.76
2022-11-03T04:29:57.536Z,62.10
2022-11-03T04:32:27.196Z,61.98
2022-11-03T04:34:55.171Z,62.15
2022-11-03T04:37:23.027Z,61.85
2022-11-03T04:39:50.951Z,61.86
2022-11-03T04:42:19.896Z,61.80
2022-11-03T04:44:47.843Z,61.80
2022-11-03T04:47:16.588Z,61.75
2022-11-03T04:49:45.908Z,61.64
2022-11-03T04:52:16.452Z,62.05
2022-11-03T04:54:44.326Z,61.70
2022-11-03T04:57:13.440Z,61.77
2022-11-03T04:59:41.693Z,61.69
2022-11-03T05:02:14.316Z,62.00
2022-11-03T05:04:42.174Z,61.92
2022-11-03T05:07:18.923Z,62.05
2022-11-03T05:09:46.784Z,62.04
2022-11-03T05:12:14.621Z,61.68
2022-11-03T05:14:42.491Z,62.10
2022-11-03T05:17:17.267Z,62.19
2022-11-03T05:19:45.309Z,61.87
2022-11-03T05:22:16.788Z,62.05
2022-11-03T05:24:44.676Z,61.94
2022-11-03T05:27:14.958Z,62.09
2022-11-03T05:29:42.864Z,62.08
2022-11-03T05:32:12.710Z,61.98
2022-11-03T05:34:43.082Z,62.08
2022-11-03T05:37:26.799Z,62.12
2022-11-03T05:39:57.026Z,62.51
2022-11-03T05:42:35.328Z,62.53
2022-11-03T05:45:04.055Z,62.57
2022-11-03T05:47:34.048Z,62.66
2022-11-03T05:50:02.937Z,62.54
2022-11-03T05:52:32.188Z,62.64
2022-11-03T05:55:02.946Z,62.89
2022-11-03T05:57:30.828Z,62.95
2022-11-03T05:59:59.406Z,62.93
2022-11-03T06:02:34.796Z,62.67
2022-11-03T06:05:03.510Z,62.91
2022-11-03T06:07:32.729Z,62.84
2022-11-03T06:10:00.617Z,63.20
2022-11-03T06:12:28.515Z,62.72
2022-11-03T06:14:56.378Z,62.63
2022-11-03T06:17:24.897Z,63.02
2022-11-03T06:19:53.602Z,62.80
2022-11-03T06:22:23.593Z,63.20
2022-11-03T06:24:52.814Z,62.90
2022-11-03T06:27:22.355Z,62.61
2022-11-03T06:29:52.280Z,62.96
2022-11-03T06:32:20.159Z,62.67
2022-11-03T06:34:48.832Z,62.82
2022-11-03T06:37:22.376Z,62.83
2022-11-03T06:39:51.965Z,63.10
2022-11-03T06:42:21.657Z,62.88
2022-11-03T06:44:50.663Z,62.86
2022-11-03T06:47:23.030Z,62.84
2022-11-03T06:49:51.689Z,62.84
2022-11-03T06:52:25.164Z,62.64
2022-11-03T06:54:56.785Z,62.92
2022-11-03T06:57:24.712Z,62.81
2022-11-03T07:00:06.653Z,62.91
2022-11-03T07:02:54.782Z,62.74
2022-11-03T07:05:23.414Z,62.55
2022-11-03T07:07:51.667Z,62.75
2022-11-03T07:10:21.067Z,62.35
2022-11-03T07:12:48.923Z,62.22
2022-11-03T07:15:26.167Z,62.33
2022-11-03T07:17:54.228Z,62.38
2022-11-03T07:20:22.845Z,62.00
2022-11-03T07:22:50.768Z,62.12
2022-11-03T07:25:21.786Z,61.99
2022-11-03T07:27:50.378Z,62.08
2022-11-03T07:30:20.906Z,62.49
2022-11-03T07:32:49.540Z,62.39
2022-11-03T07:36:08.249Z,62.81
2022-11-03T07:38:26.785Z,62.91
2022-11-03T07:40:57.353Z,62.91
2022-11-03T07:43:26.547Z,62.59
2022-11-03T07:45:54.623Z,62.96
2022-11-03T07:48:23.791Z,62.80
2022-11-03T07:50:52.691Z,62.87
2022-11-03T07:53:25.923Z,62.75
2022-11-03T07:55:56.815Z,62.52
2022-11-03T07:58:28.479Z,62.74
2022-11-03T08:00:58.724Z,62.67
2022-11-03T08:03:41.251Z,62.63
2022-11-03T08:06:10.247Z,62.80
2022-11-03T08:08:39.592Z,62.80
2022-11-03T08:11:08.995Z,62.56
2022-11-03T08:13:36.876Z,62.87
2022-11-03T08:16:05.194Z,63.00
2022-11-03T08:18:33.090Z,62.76
2022-11-03T08:21:01.034Z,62.75
2022-11-03T08:23:29.356Z,62.82
2022-11-03T08:25:57.540Z,62.57
2022-11-03T08:28:26.845Z,62.75
2022-11-03T08:30:54.847Z,63.29
2022-11-03T08:33:22.782Z,63.26
2022-11-03T08:35:50.735Z,63.18
2022-11-03T08:38:18.618Z,63.38
2022-11-03T08:40:49.096Z,63.28
2022-11-03T08:43:19.163Z,63.45
2022-11-03T08:45:53.462Z,63.23
2022-11-03T08:48:21.758Z,62.98
2022-11-03T08:50:50.453Z,63.00
2022-11-03T08:53:18.479Z,63.21
2022-11-03T08:55:46.345Z,62.93
2022-11-03T08:58:14.338Z,63.24
2022-11-03T09:00:42.194Z,63.57
2022-11-03T09:03:11.438Z,63.54
2022-11-03T09:05:39.578Z,63.28
2022-11-03T09:10:55.713Z,63.06
2022-11-03T09:13:23.627Z,62.82
2022-11-03T09:15:51.504Z,62.47
2022-11-03T09:18:20.742Z,62.51
2022-11-03T09:20:48.627Z,62.40
2022-11-03T09:23:16.494Z,62.84
2022-11-03T09:25:44.402Z,62.95
2022-11-03T09:28:12.363Z,62.98
2022-11-03T09:30:40.273Z,63.20
2022-11-03T09:33:08.200Z,63.18
2022-11-03T09:35:37.461Z,63.25
2022-11-03T09:38:07.813Z,63.02
2022-11-03T09:40:36.906Z,62.68
2022-11-03T09:43:05.217Z,62.55
2022-11-03T09:45:33.400Z,62.11
2022-11-03T09:48:01.292Z,61.76
2022-11-03T09:50:29.180Z,60.80
2022-11-03T09:52:59.227Z,60.07
2022-11-03T09:55:27.693Z,60.78
2022-11-03T09:57:56.258Z,61.20
2022-11-03T10:00:24.614Z,61.55
2022-11-03T10:02:52.533Z,61.66
2022-11-03T10:05:21.937Z,61.71
2022-11-03T10:07:49.832Z,61.79
2022-11-03T10:10:20.444Z,61.85
2022-11-03T10:12:48.626Z,62.06
2022-11-03T10:15:17.112Z,62.22
2022-11-03T10:17:45.183Z,62.44
2022-11-03T10:20:13.684Z,62.92
2022-11-03T10:22:41.708Z,62.75
2022-11-03T10:25:30.649Z,63.20
2022-11-03T10:28:14.553Z,63.64
2022-11-03T10:33:41.797Z,64.46
2022-11-03T10:36:23.914Z,62.74
2022-11-03T10:38:51.779Z,61.85
2022-11-03T10:41:22.852Z,61.55
2022-11-03T10:44:18.184Z,60.81
2022-11-03T10:46:57.226Z,61.16
2022-11-03T10:49:25.216Z,61.03
2022-11-03T10:51:53.790Z,61.35
2022-11-03T10:54:22.845Z,61.14
2022-11-03T10:56:52.421Z,61.24
2022-11-03T10:59:20.930Z,61.38
2022-11-03T11:01:48.938Z,61.26
2022-11-03T11:04:17.462Z,61.22
2022-11-03T11:06:46.274Z,60.70
2022-11-03T11:09:16.691Z,60.91
2022-11-03T11:12:01.232Z,60.56
2022-11-03T11:14:39.557Z,59.84
2022-11-03T11:17:07.712Z,59.61
2022-11-03T11:20:08.826Z,59.80
2022-11-03T11:22:36.708Z,59.74
2022-11-03T11:25:04.666Z,59.76
2022-11-03T11:28:01.704Z,59.51
2022-11-03T11:31:04.282Z,59.63
2022-11-03T11:33:35.394Z,60.57
2022-11-03T11:36:27.369Z,63.26
2022-11-03T11:38:56.879Z,63.13
2022-11-03T11:41:58.462Z,63.86
2022-11-03T11:44:49.933Z,64.83
2022-11-03T11:47:43.812Z,65.06
2022-11-03T11:50:21.582Z,62.57
2022-11-03T11:52:51.526Z,62.23
2022-11-03T11:55:20.196Z,61.71
2022-11-03T11:57:48.333Z,60.80
2022-11-03T12:00:22.301Z,57.89
2022-11-03T12:02:51.803Z,55.60
2022-11-03T12:05:21.329Z,54.71
2022-11-03T12:07:49.778Z,55.13
2022-11-03T12:10:17.838Z,54.12
2022-11-03T12:12:45.758Z,53.42
2022-11-03T12:15:53.239Z,51.79
2022-11-03T12:18:37.933Z,51.97
2022-11-03T12:21:07.989Z,52.00
2022-11-03T12:23:37.444Z,50.18
2022-11-03T12:26:05.430Z,49.25
2022-11-03T12:28:37.630Z,47.39
2022-11-03T12:31:05.740Z,47.15
2022-11-03T12:33:35.089Z,47.52
2022-11-03T12:36:02.971Z,48.14
2022-11-03T12:38:30.841Z,48.39
2022-11-03T12:41:18.780Z,48.47
2022-11-03T12:43:46.836Z,49.37
2022-11-03T12:46:14.739Z,49.47
2022-11-03T12:48:44.150Z,49.98
2022-11-03T12:51:13.229Z,51.25
2022-11-03T12:53:41.160Z,52.96
2022-11-03T12:56:09.367Z,56.37
2022-11-03T12:58:37.262Z,56.92
2022-11-03T13:01:05.244Z,55.92
2022-11-03T13:03:34.068Z,53.80
2022-11-03T13:06:04.724Z,54.36
2022-11-03T13:08:32.750Z,54.77
2022-11-03T13:11:00.638Z,52.91
2022-11-03T13:13:28.887Z,51.14
2022-11-03T13:15:56.776Z,49.01
2022-11-03T13:18:24.639Z,48.74
2022-11-03T13:20:52.568Z,48.75
2022-11-03T13:23:23.080Z,49.59
2022-11-03T13:25:51.220Z,51.74
2022-11-03T13:28:19.093Z,52.88
2022-11-03T13:30:47.646Z,54.18
2022-11-03T13:33:15.538Z,52.76
2022-11-03T13:35:43.445Z,49.66
2022-11-03T13:38:11.346Z,46.29
2022-11-03T13:40:59.173Z,45.10
2022-11-03T13:43:29.131Z,45.19
2022-11-03T13:45:58.593Z,45.85
2022-11-03T13:51:18.553Z,45.93
2022-11-03T14:04:44.930Z,46.43
2022-11-03T14:07:13.085Z,46.76
2022-11-03T14:09:40.972Z,47.11
2022-11-03T14:12:28.095Z,47.12
2022-11-03T14:14:55.937Z,47.44
2022-11-03T14:17:24.597Z,48.33
2022-11-03T14:19:54.626Z,49.67
2022-11-03T14:22:24.967Z,50.28
2022-11-03T14:24:53.162Z,51.48
2022-11-03T14:27:22.452Z,52.28
2022-11-03T14:29:50.585Z,52.89
2022-11-03T14:32:18.915Z,53.41
2022-11-03T14:34:47.066Z,53.84
2022-11-03T14:37:15.236Z,53.94
2022-11-03T14:39:43.204Z,54.16
2022-11-03T14:42:15.319Z,54.54
2022-11-03T14:44:45.958Z,55.57
2022-11-03T14:47:14.822Z,55.89
2022-11-03T14:49:42.888Z,56.61
2022-11-03T14:52:10.844Z,57.12
2022-11-03T14:54:38.791Z,57.92
2022-11-03T14:57:06.694Z,57.75
2022-11-03T14:59:34.829Z,57.75
2022-11-03T15:02:04.607Z,57.87
2022-11-03T15:04:32.628Z,57.75
2022-11-03T15:07:00.605Z,58.13
2022-11-03T15:09:28.761Z,57.82
2022-11-03T15:11:56.715Z,57.87
2022-11-03T15:14:24.673Z,58.06
2022-11-03T15:16:52.624Z,58.04
2022-11-03T15:19:22.048Z,58.18
2022-11-03T15:21:50.016Z,58.10
2022-11-03T15:27:05.902Z,58.03
2022-11-03T15:29:33.836Z,57.67
2022-11-03T15:32:01.899Z,57.94
2022-11-03T15:34:31.157Z,57.88
2022-11-03T15:36:59.116Z,58.16
2022-11-03T15:39:30.043Z,58.14
2022-11-03T15:42:00.027Z,58.27
2022-11-03T15:44:27.911Z,57.73
2022-11-03T15:46:55.832Z,57.78
2022-11-03T15:49:23.701Z,58.07
2022-11-03T15:51:53.019Z,58.25
2022-11-03T15:54:23.044Z,57.82
2022-11-03T15:56:51.141Z,58.00
2022-11-03T15:59:19.094Z,57.85
2022-11-03T16:01:47.196Z,57.90
2022-11-03T16:04:16.230Z,57.88
2022-11-03T16:07:06.656Z,58.05
2022-11-03T16:09:33.437Z,58.38
2022-11-03T16:12:01.408Z,58.22
2022-11-03T16:14:30.370Z,58.20
2022-11-03T16:16:58.417Z,58.41
2022-11-03T16:19:26.307Z,58.13
2022-11-03T16:21:54.180Z,58.11
2022-11-03T16:24:22.054Z,58.31
2022-11-03T16:26:51.823Z,58.53
2022-11-03T16:29:19.729Z,58.46
2022-11-03T16:31:49.130Z,58.47
2022-11-03T16:34:17.059Z,58.74
2022-11-03T16:36:44.884Z,59.01
2022-11-03T16:39:12.837Z,58.84
2022-11-03T16:41:40.735Z,59.18
2022-11-03T16:44:09.969Z,59.32
2022-11-03T16:46:38.060Z,59.46
2022-11-03T16:49:06.029Z,59.36
2022-11-03T16:51:33.908Z,59.56
2022-11-03T16:54:01.871Z,59.49
2022-11-03T16:56:29.747Z,60.11
2022-11-03T16:58:57.761Z,60.22
2022-11-03T17:01:27.520Z,60.06
2022-11-03T17:03:55.502Z,60.55
2022-11-03T17:06:23.586Z,60.47
2022-11-03T17:08:53.245Z,60.72
2022-11-03T17:11:36.089Z,60.83
2022-11-03T17:14:05.656Z,60.86
2022-11-03T17:16:34.980Z,60.70
2022-11-03T17:19:02.868Z,60.87
2022-11-03T17:21:30.822Z,60.63
2022-11-03T17:23:59.889Z,60.86
2022-11-03T17:26:31.206Z,60.85
2022-11-03T17:28:59.196Z,60.94
2022-11-03T17:31:27.175Z,60.46
2022-11-03T17:33:57.602Z,61.01
2022-11-03T17:36:25.502Z,60.69
2022-11-03T17:38:53.837Z,60.59
2022-11-03T17:41:21.715Z,60.79
2022-11-03T17:43:49.683Z,60.50
2022-11-03T17:46:17.700Z,60.50
2022-11-03T17:48:47.620Z,60.26
2022-11-03T17:51:16.852Z,60.68
2022-11-03T17:53:44.732Z,60.70
2022-11-03T17:56:29.553Z,60.70
2022-11-03T17:58:58.392Z,60.77
2022-11-03T18:01:27.370Z,60.94
2022-11-03T18:03:55.591Z,60.85
2022-11-03T18:06:25.556Z,60.98
2022-11-03T18:08:53.550Z,61.14
2022-11-03T18:11:41.387Z,61.06
2022-11-03T18:14:09.296Z,60.85
2022-11-03T18:16:37.254Z,60.90
2022-11-03T18:19:05.269Z,61.03
2022-11-03T18:21:34.680Z,60.83
2022-11-03T18:24:02.556Z,60.68
2022-11-03T18:26:30.509Z,60.77
2022-11-03T18:28:58.397Z,61.09
2022-11-03T18:31:33.893Z,60.78
2022-11-03T18:34:02.466Z,61.23
2022-11-03T18:36:30.315Z,60.92
2022-11-03T18:39:00.083Z,60.98
2022-11-03T18:41:39.220Z,60.89
2022-11-03T18:44:11.904Z,61.11
2022-11-03T18:46:39.877Z,61.23
2022-11-03T18:49:07.729Z,61.16
2022-11-03T18:51:35.634Z,61.06
2022-11-03T18:54:05.119Z,61.21
2022-11-03T18:56:35.833Z,61.50
2022-11-03T18:59:06.150Z,61.43
2022-11-03T19:01:34.145Z,61.10
2022-11-03T19:04:02.087Z,61.32
2022-11-03T19:06:29.957Z,61.17
2022-11-03T19:08:59.503Z,61.24
2022-11-03T19:11:29.076Z,61.44
2022-11-03T19:13:56.977Z,61.24
2022-11-03T19:16:25.140Z,61.40
2022-11-03T19:18:53.406Z,61.57
2022-11-03T19:21:23.384Z,61.42
2022-11-03T19:23:55.454Z,61.65
2022-11-03T19:26:26.748Z,61.66
2022-11-03T19:28:57.314Z,61.57
2022-11-03T19:31:25.781Z,61.50
2022-11-03T19:33:54.146Z,61.63
2022-11-03T19:36:22.279Z,61.61
2022-11-03T19:38:50.244Z,61.19
2022-11-03T19:41:35.624Z,61.43
2022-11-03T19:44:09.233Z,61.66
2022-11-03T19:46:37.133Z,61.61
2022-11-03T19:49:05.923Z,61.53
2022-11-03T19:51:36.963Z,61.30
2022-11-03T19:54:05.157Z,61.45
2022-11-03T19:56:41.600Z,61.41
2022-11-03T19:59:11.978Z,61.22
2022-11-03T20:01:39.962Z,61.26
2022-11-03T20:04:07.993Z,61.34
2022-11-03T20:06:36.933Z,61.46
2022-11-03T20:09:06.553Z,61.46
2022-11-03T20:11:34.662Z,61.47
2022-11-03T20:14:02.670Z,61.51
2022-11-03T20:16:31.991Z,61.49
2022-11-03T20:18:59.868Z,61.73
2022-11-03T20:21:34.006Z,61.72
2022-11-03T20:24:02.396Z,61.59
2022-11-03T20:26:30.292Z,61.79
2022-11-03T20:28:58.226Z,61.91
2022-11-03T20:31:26.300Z,62.06
2022-11-03T20:33:55.523Z,62.02
2022-11-03T20:36:23.616Z,62.14
2022-11-03T20:38:52.493Z,62.13
2022-11-03T20:41:20.367Z,62.02
2022-11-03T20:43:49.655Z,62.29
2022-11-03T20:46:24.725Z,62.69
2022-11-03T20:48:52.584Z,62.85
2022-11-03T20:51:22.714Z,62.80
2022-11-03T20:53:50.660Z,62.66
2022-11-03T20:56:20.050Z,62.93
2022-11-03T20:58:48.164Z,63.10
2022-11-03T21:01:24.984Z,63.00
2022-11-03T21:03:59.400Z,62.73
2022-11-03T21:06:29.816Z,62.89
2022-11-03T21:08:57.810Z,63.11
2022-11-03T21:11:27.416Z,62.87
2022-11-03T21:13:56.196Z,62.82
2022-11-03T21:16:41.572Z,62.93
2022-11-03T21:19:31.120Z,62.75
2022-11-03T21:22:00.416Z,62.58
2022-11-03T21:24:28.274Z,62.68
2022-11-03T21:26:56.181Z,62.93
2022-11-03T21:29:58.545Z,62.78
2022-11-03T21:32:13.072Z,62.91
2022-11-03T21:34:41.097Z,62.77
2022-11-03T21:37:11.456Z,62.70
2022-11-03T21:39:39.345Z,62.55
2022-11-03T21:42:24.439Z,62.67
2022-11-03T21:44:52.348Z,62.90
2022-11-03T21:47:21.307Z,62.77
2022-11-03T21:49:48.293Z,62.46
2022-11-03T21:52:18.264Z,62.62
2022-11-03T21:54:46.235Z,62.44
2022-11-03T21:57:15.634Z,62.83
2022-11-03T21:59:43.528Z,62.36
2022-11-03T22:02:11.617Z,62.33
2022-11-03T22:04:39.495Z,62.32
2022-11-03T22:07:07.719Z,62.50
2022-11-03T22:09:36.981Z,62.34
2022-11-03T22:12:05.090Z,62.85
2022-11-03T22:14:46.847Z,62.57
2022-11-03T22:17:14.747Z,62.47
2022-11-03T22:20:00.079Z,62.17
2022-11-03T22:22:45.333Z,62.41
2022-11-03T22:25:32.039Z,62.21
2022-11-03T22:27:59.874Z,62.40
2022-11-03T22:30:45.333Z,62.41
2022-11-03T22:33:13.438Z,62.49
2022-11-03T22:35:58.512Z,62.50
2022-11-03T22:38:47.229Z,62.69
2022-11-03T22:41:33.996Z,62.58
2022-11-03T22:44:19.446Z,62.59
2022-11-03T22:46:47.337Z,62.65
2022-11-03T22:49:15.320Z,62.67
2022-11-03T22:51:43.216Z,62.47
2022-11-03T22:54:10.206Z,62.43
2022-11-03T22:56:39.607Z,62.46
2022-11-03T22:59:07.602Z,62.73
2022-11-03T23:01:35.674Z,62.81
2022-11-03T23:04:03.931Z,62.78
2022-11-03T23:06:35.476Z,62.84
2022-11-03T23:09:03.688Z,62.55
2022-11-03T23:11:32.671Z,62.48
2022-11-03T23:14:03.401Z,62.30
2022-11-03T23:16:32.108Z,62.25
2022-11-03T23:19:17.364Z,62.35
2022-11-03T23:21:45.558Z,62.22
2022-11-03T23:24:30.999Z,62.08
2022-11-03T23:27:00.711Z,62.07
2022-11-03T23:29:30.030Z,62.08
2022-11-03T23:31:58.805Z,62.39
2022-11-03T23:34:26.688Z,62.32
2022-11-03T23:36:54.869Z,62.07
2022-11-03T23:39:22.853Z,62.32
2022-11-03T23:41:51.413Z,62.35
2022-11-03T23:44:19.290Z,62.42
2022-11-03T23:47:06.067Z,62.50
2022-11-03T23:49:33.997Z,62.42
2022-11-03T23:52:01.912Z,62.41
2022-11-03T23:54:29.927Z,62.50
2022-11-03T23:57:15.044Z,62.79
2022-11-03T23:59:42.910Z,62.70
